Airfield :
LOGIN :

Register | Disclaimer

   EN    FR    IT 

 










Legend :    VFR   Marginal VFR   IFR   Intensive IFR   Very Intensive IFR
Visi :
Ceiling :
>= 8 km
>= 3000ft
5 to 8 km
1000 to 3000 ft
1500m to 5 km
500 to 1000 ft
800 to 1500m
200 to 500 ft
< 800m
< 200 ft
Symbols :   Thunderstorms  Fog  Heavy snow  Heavy precipitations  Wind > 20 kt
SIGMETs :     Misc.  Thunderstorms  Icing  Turbulence  Mountain Waves  Volcanic Ashes






- Airport Elevation : 158 ft
- IATA code : QAR


EHDL - Deelen Airbase

CURRENT METAR :
  • 220025Z AUTO 21012KT 160V260 2800 +DZ BKN003 OVC004 09/09 Q0998 YLO

EXPIRED METARs :
  • 212355Z AUTO 21012KT 140V280 2900 DZ SCT003 BKN004 OVC006 09/09 Q0998 YLO
  • 212325Z AUTO 21013KT 150V290 2900 DZ SCT004 BKN005 OVC006 09/09 Q0998 YLO
  • 212255Z AUTO 20014KT 3400 DZ SCT003 BKN005 OVC006 09/08 Q0998 YLO
  • 212225Z AUTO 20014KT 130V250 3200 -RA SCT003 BKN005 OVC007 09/08 Q0999 RERA REDZ YLO
  • 212155Z AUTO 20013KT 130V250 3400 DZ FEW003 BKN005 OVC006 09/08 Q0999 YLO
  • 212125Z AUTO 20014KT 120V260 3800 DZ FEW004 BKN006 BKN007 08/08 Q1000 YLO
  • 212055Z AUTO 19014KT 120V250 5000 -SHRA FEW004 SCT005 BKN006 08/08 Q1000 REDZ YLO
  • 212025Z AUTO 19014KT 110V270 7000 DZ FEW005 BKN006 OVC007 08/08 Q1001 YLO
  • 211955Z AUTO 19013KT 110V280 6000 -RA SCT006 BKN007 BKN008 08/07 Q1001 RERA REDZ YLO

TAF TAF EHDL
Valid from the 21 at 18:00 until the 22 at 06:00 UTC


211738Z 2118/2206 18012KT 9999 -RA FEW012 BKN018
TEMPO 2118/2122 21015G25KT 4500 RA DZRA SCT007 BKN010 BKN012
BECMG 2121/2123 23007KT 2500 BR DZ BKN004 OVC006
TEMPO 2122/2206 1200 BR -DZ BKN002 OVC003



MET'MAP, your aeronautical weather chart ! - Copyright ORBIFLY December 2007 - Disclaimer

ORBIFLY MET'MAP TEAM :

Programming & Development : Alexandra Zaïnal
Original concept : Baudouin d'Aumeries
Technical & hardware support : Manuel Goepfert
Assistance : Marc-Olivier Méhu




SOURCES & CREDITS :

   NOAA